sensor_id;sensor_type;location;lat;lon;timestamp;P1;durP1;ratioP1;P2;durP2;ratioP2
2756;SDS011;1386;50.862;6.494;2022-11-20T00:00:01;27.20;;;16.87;;
2756;SDS011;1386;50.862;6.494;2022-11-20T00:02:29;25.63;;;16.17;;
2756;SDS011;1386;50.862;6.494;2022-11-20T00:04:56;30.20;;;18.60;;
2756;SDS011;1386;50.862;6.494;2022-11-20T00:07:24;24.50;;;16.40;;
2756;SDS011;1386;50.862;6.494;2022-11-20T00:09:51;27.67;;;17.97;;
2756;SDS011;1386;50.862;6.494;2022-11-20T00:12:18;24.77;;;16.63;;
2756;SDS011;1386;50.862;6.494;2022-11-20T00:14:44;27.50;;;17.70;;
2756;SDS011;1386;50.862;6.494;2022-11-20T00:17:11;25.53;;;17.20;;
2756;SDS011;1386;50.862;6.494;2022-11-20T00:19:38;27.40;;;17.10;;
2756;SDS011;1386;50.862;6.494;2022-11-20T00:22:05;24.17;;;16.90;;
2756;SDS011;1386;50.862;6.494;2022-11-20T00:24:33;28.67;;;18.03;;
2756;SDS011;1386;50.862;6.494;2022-11-20T00:27:00;27.40;;;17.80;;
2756;SDS011;1386;50.862;6.494;2022-11-20T00:29:27;25.90;;;16.57;;
2756;SDS011;1386;50.862;6.494;2022-11-20T00:31:54;25.93;;;17.13;;
2756;SDS011;1386;50.862;6.494;2022-11-20T00:34:21;27.50;;;17.50;;
2756;SDS011;1386;50.862;6.494;2022-11-20T00:36:48;27.77;;;17.90;;
2756;SDS011;1386;50.862;6.494;2022-11-20T00:39:15;25.20;;;17.60;;
2756;SDS011;1386;50.862;6.494;2022-11-20T00:41:43;27.03;;;17.80;;
2756;SDS011;1386;50.862;6.494;2022-11-20T00:44:10;26.93;;;17.50;;
2756;SDS011;1386;50.862;6.494;2022-11-20T00:46:37;28.77;;;20.10;;
2756;SDS011;1386;50.862;6.494;2022-11-20T00:49:03;27.30;;;17.57;;
2756;SDS011;1386;50.862;6.494;2022-11-20T00:51:30;25.50;;;17.70;;
2756;SDS011;1386;50.862;6.494;2022-11-20T00:53:57;32.30;;;18.00;;
2756;SDS011;1386;50.862;6.494;2022-11-20T00:56:27;25.43;;;18.20;;
2756;SDS011;1386;50.862;6.494;2022-11-20T00:58:55;29.30;;;18.60;;
2756;SDS011;1386;50.862;6.494;2022-11-20T01:01:25;26.83;;;17.73;;
2756;SDS011;1386;50.862;6.494;2022-11-20T01:03:54;28.90;;;16.80;;
2756;SDS011;1386;50.862;6.494;2022-11-20T01:06:23;29.30;;;19.30;;
2756;SDS011;1386;50.862;6.494;2022-11-20T01:08:52;28.90;;;19.23;;
2756;SDS011;1386;50.862;6.494;2022-11-20T01:11:21;31.10;;;18.20;;
2756;SDS011;1386;50.862;6.494;2022-11-20T01:13:51;27.63;;;19.20;;
2756;SDS011;1386;50.862;6.494;2022-11-20T01:16:22;27.83;;;17.40;;
2756;SDS011;1386;50.862;6.494;2022-11-20T01:18:51;27.90;;;18.47;;
2756;SDS011;1386;50.862;6.494;2022-11-20T01:21:20;26.47;;;16.93;;
2756;SDS011;1386;50.862;6.494;2022-11-20T01:23:49;28.30;;;18.13;;
2756;SDS011;1386;50.862;6.494;2022-11-20T01:26:17;27.20;;;17.77;;
2756;SDS011;1386;50.862;6.494;2022-11-20T01:28:45;27.83;;;16.97;;
2756;SDS011;1386;50.862;6.494;2022-11-20T01:31:12;26.33;;;18.70;;
2756;SDS011;1386;50.862;6.494;2022-11-20T01:33:42;25.77;;;17.87;;
2756;SDS011;1386;50.862;6.494;2022-11-20T01:36:10;29.13;;;18.30;;
2756;SDS011;1386;50.862;6.494;2022-11-20T01:38:37;25.63;;;16.93;;
2756;SDS011;1386;50.862;6.494;2022-11-20T01:41:05;27.90;;;17.63;;
2756;SDS011;1386;50.862;6.494;2022-11-20T01:43:32;25.70;;;17.23;;
2756;SDS011;1386;50.862;6.494;2022-11-20T01:46:00;24.50;;;17.43;;
2756;SDS011;1386;50.862;6.494;2022-11-20T01:48:50;26.70;;;18.10;;
2756;SDS011;1386;50.862;6.494;2022-11-20T01:51:25;27.63;;;17.80;;
2756;SDS011;1386;50.862;6.494;2022-11-20T01:53:54;23.87;;;16.67;;
2756;SDS011;1386;50.862;6.494;2022-11-20T01:56:23;28.80;;;17.97;;
2756;SDS011;1386;50.862;6.494;2022-11-20T01:58:52;25.53;;;17.90;;
2756;SDS011;1386;50.862;6.494;2022-11-20T02:01:25;27.30;;;17.43;;
2756;SDS011;1386;50.862;6.494;2022-11-20T02:03:53;26.57;;;18.20;;
2756;SDS011;1386;50.862;6.494;2022-11-20T02:06:22;31.07;;;20.83;;
2756;SDS011;1386;50.862;6.494;2022-11-20T02:08:52;30.13;;;18.97;;
2756;SDS011;1386;50.862;6.494;2022-11-20T02:11:19;26.73;;;18.63;;
2756;SDS011;1386;50.862;6.494;2022-11-20T02:13:46;26.43;;;18.30;;
2756;SDS011;1386;50.862;6.494;2022-11-20T02:18:41;29.03;;;18.10;;
2756;SDS011;1386;50.862;6.494;2022-11-20T02:21:12;28.43;;;18.17;;
2756;SDS011;1386;50.862;6.494;2022-11-20T02:23:54;31.50;;;18.50;;
2756;SDS011;1386;50.862;6.494;2022-11-20T02:26:28;25.70;;;17.80;;
2756;SDS011;1386;50.862;6.494;2022-11-20T02:28:58;28.27;;;17.47;;
2756;SDS011;1386;50.862;6.494;2022-11-20T02:31:26;27.43;;;19.23;;
2756;SDS011;1386;50.862;6.494;2022-11-20T02:33:54;26.47;;;17.70;;
2756;SDS011;1386;50.862;6.494;2022-11-20T02:36:22;26.63;;;17.67;;
2756;SDS011;1386;50.862;6.494;2022-11-20T02:38:50;27.37;;;17.93;;
2756;SDS011;1386;50.862;6.494;2022-11-20T02:41:18;33.90;;;18.93;;
2756;SDS011;1386;50.862;6.494;2022-11-20T02:43:45;28.70;;;18.97;;
2756;SDS011;1386;50.862;6.494;2022-11-20T02:46:12;30.40;;;19.00;;
2756;SDS011;1386;50.862;6.494;2022-11-20T02:48:39;25.40;;;17.27;;
2756;SDS011;1386;50.862;6.494;2022-11-20T02:51:06;28.30;;;18.23;;
2756;SDS011;1386;50.862;6.494;2022-11-20T02:53:33;24.80;;;17.20;;
2756;SDS011;1386;50.862;6.494;2022-11-20T02:56:00;29.53;;;20.17;;
2756;SDS011;1386;50.862;6.494;2022-11-20T02:58:28;29.90;;;18.70;;
2756;SDS011;1386;50.862;6.494;2022-11-20T03:00:55;28.90;;;17.87;;
2756;SDS011;1386;50.862;6.494;2022-11-20T03:03:22;28.97;;;18.57;;
2756;SDS011;1386;50.862;6.494;2022-11-20T03:05:48;29.03;;;18.37;;
2756;SDS011;1386;50.862;6.494;2022-11-20T03:08:15;30.97;;;19.23;;
2756;SDS011;1386;50.862;6.494;2022-11-20T03:10:42;31.03;;;17.90;;
2756;SDS011;1386;50.862;6.494;2022-11-20T03:13:09;28.00;;;17.73;;
2756;SDS011;1386;50.862;6.494;2022-11-20T03:15:37;28.70;;;18.10;;
2756;SDS011;1386;50.862;6.494;2022-11-20T03:18:05;29.10;;;19.00;;
2756;SDS011;1386;50.862;6.494;2022-11-20T03:20:32;28.10;;;18.50;;
2756;SDS011;1386;50.862;6.494;2022-11-20T03:22:59;28.67;;;17.60;;
2756;SDS011;1386;50.862;6.494;2022-11-20T03:25:26;30.47;;;18.73;;
2756;SDS011;1386;50.862;6.494;2022-11-20T03:27:53;30.77;;;19.00;;
2756;SDS011;1386;50.862;6.494;2022-11-20T03:30:20;27.43;;;18.03;;
2756;SDS011;1386;50.862;6.494;2022-11-20T03:32:48;28.23;;;18.53;;
2756;SDS011;1386;50.862;6.494;2022-11-20T03:35:18;28.13;;;17.60;;
2756;SDS011;1386;50.862;6.494;2022-11-20T03:37:45;31.27;;;19.40;;
2756;SDS011;1386;50.862;6.494;2022-11-20T03:40:12;25.97;;;18.00;;
2756;SDS011;1386;50.862;6.494;2022-11-20T03:42:39;30.17;;;18.67;;
2756;SDS011;1386;50.862;6.494;2022-11-20T03:45:12;29.13;;;17.93;;
2756;SDS011;1386;50.862;6.494;2022-11-20T03:47:39;29.33;;;17.77;;
2756;SDS011;1386;50.862;6.494;2022-11-20T03:50:08;29.00;;;17.00;;
2756;SDS011;1386;50.862;6.494;2022-11-20T03:52:35;30.13;;;17.20;;
2756;SDS011;1386;50.862;6.494;2022-11-20T03:55:02;28.07;;;16.87;;
2756;SDS011;1386;50.862;6.494;2022-11-20T03:57:29;31.10;;;18.10;;
2756;SDS011;1386;50.862;6.494;2022-11-20T03:59:56;29.90;;;18.13;;
2756;SDS011;1386;50.862;6.494;2022-11-20T04:02:23;28.10;;;18.40;;
2756;SDS011;1386;50.862;6.494;2022-11-20T04:04:50;26.90;;;17.47;;
2756;SDS011;1386;50.862;6.494;2022-11-20T04:07:18;26.70;;;17.40;;
2756;SDS011;1386;50.862;6.494;2022-11-20T04:09:45;27.37;;;16.87;;
2756;SDS011;1386;50.862;6.494;2022-11-20T04:12:12;28.73;;;17.40;;
2756;SDS011;1386;50.862;6.494;2022-11-20T04:14:39;29.30;;;17.57;;
2756;SDS011;1386;50.862;6.494;2022-11-20T04:17:05;29.27;;;18.00;;
2756;SDS011;1386;50.862;6.494;2022-11-20T04:19:32;24.27;;;16.90;;
2756;SDS011;1386;50.862;6.494;2022-11-20T04:21:59;28.33;;;17.07;;
2756;SDS011;1386;50.862;6.494;2022-11-20T04:24:27;26.90;;;16.77;;
2756;SDS011;1386;50.862;6.494;2022-11-20T04:26:54;27.80;;;18.03;;
2756;SDS011;1386;50.862;6.494;2022-11-20T04:29:21;24.90;;;16.70;;
2756;SDS011;1386;50.862;6.494;2022-11-20T04:31:47;31.77;;;18.30;;
2756;SDS011;1386;50.862;6.494;2022-11-20T04:34:14;25.57;;;17.00;;
2756;SDS011;1386;50.862;6.494;2022-11-20T04:36:41;28.40;;;16.57;;
2756;SDS011;1386;50.862;6.494;2022-11-20T04:39:11;30.20;;;18.80;;
2756;SDS011;1386;50.862;6.494;2022-11-20T04:41:40;25.47;;;14.80;;
2756;SDS011;1386;50.862;6.494;2022-11-20T04:44:07;26.20;;;16.63;;
2756;SDS011;1386;50.862;6.494;2022-11-20T04:46:35;27.87;;;17.90;;
2756;SDS011;1386;50.862;6.494;2022-11-20T04:49:03;28.80;;;18.43;;
2756;SDS011;1386;50.862;6.494;2022-11-20T04:51:31;27.67;;;16.93;;
2756;SDS011;1386;50.862;6.494;2022-11-20T04:53:58;25.87;;;17.20;;
2756;SDS011;1386;50.862;6.494;2022-11-20T04:56:25;25.87;;;16.47;;
2756;SDS011;1386;50.862;6.494;2022-11-20T04:58:53;28.53;;;16.67;;
2756;SDS011;1386;50.862;6.494;2022-11-20T05:01:20;25.23;;;17.30;;
2756;SDS011;1386;50.862;6.494;2022-11-20T05:03:49;29.10;;;17.90;;
2756;SDS011;1386;50.862;6.494;2022-11-20T05:06:17;28.43;;;18.87;;
2756;SDS011;1386;50.862;6.494;2022-11-20T05:08:45;28.00;;;17.00;;
2756;SDS011;1386;50.862;6.494;2022-11-20T05:11:12;28.40;;;18.00;;
2756;SDS011;1386;50.862;6.494;2022-11-20T05:13:41;28.30;;;18.03;;
2756;SDS011;1386;50.862;6.494;2022-11-20T05:16:09;26.57;;;16.77;;
2756;SDS011;1386;50.862;6.494;2022-11-20T05:18:38;26.23;;;16.40;;
2756;SDS011;1386;50.862;6.494;2022-11-20T05:21:05;28.37;;;16.83;;
2756;SDS011;1386;50.862;6.494;2022-11-20T05:23:33;28.03;;;18.27;;
2756;SDS011;1386;50.862;6.494;2022-11-20T05:26:00;28.40;;;17.40;;
2756;SDS011;1386;50.862;6.494;2022-11-20T05:28:28;25.40;;;16.80;;
2756;SDS011;1386;50.862;6.494;2022-11-20T05:30:55;28.87;;;19.03;;
2756;SDS011;1386;50.862;6.494;2022-11-20T05:33:30;31.30;;;17.20;;
2756;SDS011;1386;50.862;6.494;2022-11-20T05:35:57;23.77;;;16.33;;
2756;SDS011;1386;50.862;6.494;2022-11-20T05:38:37;24.43;;;15.57;;
2756;SDS011;1386;50.862;6.494;2022-11-20T05:41:04;28.60;;;17.30;;
2756;SDS011;1386;50.862;6.494;2022-11-20T05:43:33;26.43;;;17.40;;
2756;SDS011;1386;50.862;6.494;2022-11-20T05:46:00;27.83;;;17.70;;
2756;SDS011;1386;50.862;6.494;2022-11-20T05:48:27;25.37;;;18.10;;
2756;SDS011;1386;50.862;6.494;2022-11-20T05:50:57;25.50;;;16.87;;
2756;SDS011;1386;50.862;6.494;2022-11-20T05:53:24;28.77;;;16.70;;
2756;SDS011;1386;50.862;6.494;2022-11-20T05:55:58;26.23;;;16.33;;
2756;SDS011;1386;50.862;6.494;2022-11-20T05:58:25;30.33;;;19.07;;
2756;SDS011;1386;50.862;6.494;2022-11-20T06:00:52;30.07;;;18.37;;
2756;SDS011;1386;50.862;6.494;2022-11-20T06:03:19;25.97;;;15.77;;
2756;SDS011;1386;50.862;6.494;2022-11-20T06:05:46;33.43;;;17.23;;
2756;SDS011;1386;50.862;6.494;2022-11-20T06:08:14;25.80;;;16.33;;
2756;SDS011;1386;50.862;6.494;2022-11-20T06:10:41;33.67;;;17.83;;
2756;SDS011;1386;50.862;6.494;2022-11-20T06:13:08;24.60;;;17.27;;
2756;SDS011;1386;50.862;6.494;2022-11-20T06:15:35;29.67;;;17.63;;
2756;SDS011;1386;50.862;6.494;2022-11-20T06:18:02;33.90;;;17.10;;
2756;SDS011;1386;50.862;6.494;2022-11-20T06:20:29;30.10;;;17.90;;
2756;SDS011;1386;50.862;6.494;2022-11-20T06:22:56;27.27;;;17.23;;
2756;SDS011;1386;50.862;6.494;2022-11-20T06:25:26;30.13;;;18.50;;
2756;SDS011;1386;50.862;6.494;2022-11-20T06:27:53;26.77;;;17.00;;
2756;SDS011;1386;50.862;6.494;2022-11-20T06:30:20;33.20;;;18.60;;
2756;SDS011;1386;50.862;6.494;2022-11-20T06:32:46;27.60;;;17.87;;
2756;SDS011;1386;50.862;6.494;2022-11-20T06:35:13;28.60;;;19.50;;
2756;SDS011;1386;50.862;6.494;2022-11-20T06:37:40;31.87;;;17.90;;
2756;SDS011;1386;50.862;6.494;2022-11-20T06:40:08;29.53;;;18.10;;
2756;SDS011;1386;50.862;6.494;2022-11-20T06:42:37;31.37;;;19.53;;
2756;SDS011;1386;50.862;6.494;2022-11-20T06:45:05;33.03;;;17.57;;
2756;SDS011;1386;50.862;6.494;2022-11-20T06:47:32;29.80;;;18.30;;
2756;SDS011;1386;50.862;6.494;2022-11-20T06:49:59;29.50;;;17.13;;
2756;SDS011;1386;50.862;6.494;2022-11-20T06:52:26;29.80;;;17.83;;
2756;SDS011;1386;50.862;6.494;2022-11-20T06:54:52;30.87;;;19.43;;
2756;SDS011;1386;50.862;6.494;2022-11-20T06:57:19;29.00;;;17.00;;
2756;SDS011;1386;50.862;6.494;2022-11-20T06:59:47;29.30;;;18.57;;
2756;SDS011;1386;50.862;6.494;2022-11-20T07:02:14;30.07;;;19.20;;
2756;SDS011;1386;50.862;6.494;2022-11-20T07:04:44;37.57;;;20.60;;
2756;SDS011;1386;50.862;6.494;2022-11-20T07:07:14;33.50;;;18.27;;
2756;SDS011;1386;50.862;6.494;2022-11-20T07:13:28;28.83;;;18.40;;
2756;SDS011;1386;50.862;6.494;2022-11-20T07:16:05;29.70;;;18.00;;
2756;SDS011;1386;50.862;6.494;2022-11-20T07:18:36;32.07;;;20.00;;
2756;SDS011;1386;50.862;6.494;2022-11-20T07:21:21;36.33;;;20.30;;
2756;SDS011;1386;50.862;6.494;2022-11-20T07:23:51;34.80;;;19.37;;
2756;SDS011;1386;50.862;6.494;2022-11-20T07:26:18;32.17;;;20.20;;
2756;SDS011;1386;50.862;6.494;2022-11-20T07:28:45;29.37;;;18.43;;
2756;SDS011;1386;50.862;6.494;2022-11-20T07:31:13;34.33;;;20.40;;
2756;SDS011;1386;50.862;6.494;2022-11-20T07:33:40;33.37;;;19.97;;
2756;SDS011;1386;50.862;6.494;2022-11-20T07:36:07;30.80;;;19.53;;
2756;SDS011;1386;50.862;6.494;2022-11-20T07:38:34;27.47;;;17.80;;
2756;SDS011;1386;50.862;6.494;2022-11-20T07:41:03;31.00;;;18.27;;
2756;SDS011;1386;50.862;6.494;2022-11-20T07:43:30;27.97;;;18.53;;
2756;SDS011;1386;50.862;6.494;2022-11-20T07:45:57;30.13;;;17.73;;
2756;SDS011;1386;50.862;6.494;2022-11-20T07:48:26;29.80;;;18.17;;
2756;SDS011;1386;50.862;6.494;2022-11-20T07:50:53;26.67;;;16.87;;
2756;SDS011;1386;50.862;6.494;2022-11-20T07:53:20;32.97;;;20.67;;
2756;SDS011;1386;50.862;6.494;2022-11-20T07:55:53;31.00;;;19.70;;
2756;SDS011;1386;50.862;6.494;2022-11-20T07:58:20;28.73;;;18.10;;
2756;SDS011;1386;50.862;6.494;2022-11-20T08:00:47;26.20;;;16.40;;
2756;SDS011;1386;50.862;6.494;2022-11-20T08:03:14;31.73;;;17.93;;
2756;SDS011;1386;50.862;6.494;2022-11-20T08:29:19;24.43;;;15.47;;
2756;SDS011;1386;50.862;6.494;2022-11-20T08:31:45;22.27;;;14.27;;
2756;SDS011;1386;50.862;6.494;2022-11-20T08:34:12;24.87;;;15.47;;
2756;SDS011;1386;50.862;6.494;2022-11-20T08:36:39;34.20;;;16.57;;
2756;SDS011;1386;50.862;6.494;2022-11-20T08:39:06;26.27;;;16.00;;
2756;SDS011;1386;50.862;6.494;2022-11-20T08:41:33;30.60;;;17.83;;
2756;SDS011;1386;50.862;6.494;2022-11-20T08:44:02;28.60;;;18.10;;
2756;SDS011;1386;50.862;6.494;2022-11-20T08:46:33;24.50;;;16.47;;
2756;SDS011;1386;50.862;6.494;2022-11-20T08:49:02;23.50;;;15.43;;
2756;SDS011;1386;50.862;6.494;2022-11-20T08:51:29;24.40;;;15.53;;
2756;SDS011;1386;50.862;6.494;2022-11-20T08:53:56;24.03;;;14.63;;
2756;SDS011;1386;50.862;6.494;2022-11-20T08:56:23;24.10;;;15.47;;
2756;SDS011;1386;50.862;6.494;2022-11-20T08:58:50;23.40;;;15.07;;
2756;SDS011;1386;50.862;6.494;2022-11-20T09:01:17;22.37;;;14.50;;
2756;SDS011;1386;50.862;6.494;2022-11-20T09:03:46;24.63;;;14.33;;
2756;SDS011;1386;50.862;6.494;2022-11-20T09:06:13;25.03;;;15.50;;
2756;SDS011;1386;50.862;6.494;2022-11-20T09:08:43;22.53;;;15.13;;
2756;SDS011;1386;50.862;6.494;2022-11-20T09:11:10;23.60;;;15.40;;
2756;SDS011;1386;50.862;6.494;2022-11-20T09:13:37;26.00;;;15.67;;
2756;SDS011;1386;50.862;6.494;2022-11-20T09:16:05;17.37;;;12.07;;
2756;SDS011;1386;50.862;6.494;2022-11-20T09:18:34;20.57;;;13.93;;
2756;SDS011;1386;50.862;6.494;2022-11-20T09:21:04;22.63;;;13.37;;
2756;SDS011;1386;50.862;6.494;2022-11-20T09:23:35;27.40;;;15.40;;
2756;SDS011;1386;50.862;6.494;2022-11-20T09:26:03;22.30;;;13.60;;
2756;SDS011;1386;50.862;6.494;2022-11-20T09:28:30;19.10;;;12.83;;
2756;SDS011;1386;50.862;6.494;2022-11-20T09:30:58;17.43;;;12.63;;
2756;SDS011;1386;50.862;6.494;2022-11-20T09:33:25;20.67;;;13.00;;
2756;SDS011;1386;50.862;6.494;2022-11-20T09:35:52;20.73;;;14.43;;
2756;SDS011;1386;50.862;6.494;2022-11-20T09:38:20;20.03;;;13.27;;
2756;SDS011;1386;50.862;6.494;2022-11-20T09:40:49;23.10;;;14.90;;
2756;SDS011;1386;50.862;6.494;2022-11-20T09:43:20;21.23;;;14.20;;
2756;SDS011;1386;50.862;6.494;2022-11-20T09:45:55;21.33;;;14.20;;
2756;SDS011;1386;50.862;6.494;2022-11-20T09:48:32;22.37;;;13.90;;
2756;SDS011;1386;50.862;6.494;2022-11-20T09:51:09;22.70;;;14.13;;
2756;SDS011;1386;50.862;6.494;2022-11-20T09:53:48;21.87;;;15.47;;
2756;SDS011;1386;50.862;6.494;2022-11-20T09:56:26;21.23;;;14.77;;
2756;SDS011;1386;50.862;6.494;2022-11-20T09:58:55;21.73;;;16.00;;
2756;SDS011;1386;50.862;6.494;2022-11-20T10:01:26;19.90;;;15.13;;
2756;SDS011;1386;50.862;6.494;2022-11-20T10:03:58;19.63;;;13.43;;
2756;SDS011;1386;50.862;6.494;2022-11-20T10:06:29;23.97;;;13.50;;
2756;SDS011;1386;50.862;6.494;2022-11-20T10:09:14;22.90;;;14.40;;
2756;SDS011;1386;50.862;6.494;2022-11-20T10:11:48;22.37;;;13.70;;
2756;SDS011;1386;50.862;6.494;2022-11-20T10:14:26;20.03;;;13.57;;
2756;SDS011;1386;50.862;6.494;2022-11-20T10:17:03;24.67;;;15.90;;
2756;SDS011;1386;50.862;6.494;2022-11-20T10:19:54;24.07;;;16.10;;
2756;SDS011;1386;50.862;6.494;2022-11-20T10:22:34;26.53;;;16.53;;
2756;SDS011;1386;50.862;6.494;2022-11-20T10:25:16;27.00;;;18.53;;
2756;SDS011;1386;50.862;6.494;2022-11-20T10:27:57;27.27;;;17.87;;
2756;SDS011;1386;50.862;6.494;2022-11-20T10:30:34;29.87;;;17.40;;
2756;SDS011;1386;50.862;6.494;2022-11-20T10:33:04;29.73;;;19.80;;
2756;SDS011;1386;50.862;6.494;2022-11-20T10:35:35;30.80;;;19.50;;
2756;SDS011;1386;50.862;6.494;2022-11-20T10:38:07;31.73;;;18.70;;
2756;SDS011;1386;50.862;6.494;2022-11-20T10:40:42;31.67;;;19.70;;
2756;SDS011;1386;50.862;6.494;2022-11-20T10:43:12;26.20;;;17.40;;
2756;SDS011;1386;50.862;6.494;2022-11-20T10:45:45;32.60;;;18.50;;
2756;SDS011;1386;50.862;6.494;2022-11-20T10:48:19;36.50;;;20.60;;
2756;SDS011;1386;50.862;6.494;2022-11-20T10:50:59;34.07;;;21.50;;
2756;SDS011;1386;50.862;6.494;2022-11-20T10:53:40;35.50;;;20.53;;
2756;SDS011;1386;50.862;6.494;2022-11-20T10:56:20;34.33;;;19.90;;
2756;SDS011;1386;50.862;6.494;2022-11-20T10:58:54;36.97;;;20.83;;
2756;SDS011;1386;50.862;6.494;2022-11-20T11:01:31;36.53;;;21.37;;
2756;SDS011;1386;50.862;6.494;2022-11-20T11:04:16;31.20;;;19.20;;
2756;SDS011;1386;50.862;6.494;2022-11-20T11:07:07;30.50;;;19.30;;
2756;SDS011;1386;50.862;6.494;2022-11-20T11:09:43;31.07;;;19.63;;
2756;SDS011;1386;50.862;6.494;2022-11-20T11:12:15;32.43;;;19.97;;
2756;SDS011;1386;50.862;6.494;2022-11-20T11:14:46;30.13;;;19.60;;
2756;SDS011;1386;50.862;6.494;2022-11-20T11:17:25;31.87;;;18.80;;
2756;SDS011;1386;50.862;6.494;2022-11-20T11:19:56;35.10;;;21.37;;
2756;SDS011;1386;50.862;6.494;2022-11-20T20:18:06;12.40;;;3.20;;
2756;SDS011;1386;50.862;6.494;2022-11-20T20:20:33;9.50;;;3.80;;
2756;SDS011;1386;50.862;6.494;2022-11-20T20:23:00;12.10;;;4.00;;
2756;SDS011;1386;50.862;6.494;2022-11-20T20:25:31;10.90;;;3.20;;
2756;SDS011;1386;50.862;6.494;2022-11-20T20:27:57;4.87;;;2.97;;
2756;SDS011;1386;50.862;6.494;2022-11-20T20:30:24;11.07;;;2.90;;
2756;SDS011;1386;50.862;6.494;2022-11-20T20:32:53;4.97;;;2.80;;
2756;SDS011;1386;50.862;6.494;2022-11-20T20:35:20;8.90;;;2.87;;
2756;SDS011;1386;50.862;6.494;2022-11-20T20:37:47;9.07;;;3.70;;
2756;SDS011;1386;50.862;6.494;2022-11-20T20:40:14;5.00;;;2.70;;
2756;SDS011;1386;50.862;6.494;2022-11-20T20:42:42;8.23;;;3.33;;
2756;SDS011;1386;50.862;6.494;2022-11-20T20:45:09;8.07;;;4.43;;
2756;SDS011;1386;50.862;6.494;2022-11-20T20:47:37;12.47;;;3.70;;
2756;SDS011;1386;50.862;6.494;2022-11-20T20:50:07;4.70;;;2.90;;
2756;SDS011;1386;50.862;6.494;2022-11-20T20:52:36;5.40;;;3.53;;
2756;SDS011;1386;50.862;6.494;2022-11-20T20:55:03;8.50;;;3.13;;
2756;SDS011;1386;50.862;6.494;2022-11-20T20:57:30;11.50;;;3.80;;
2756;SDS011;1386;50.862;6.494;2022-11-20T20:59:58;7.77;;;3.33;;
2756;SDS011;1386;50.862;6.494;2022-11-20T21:02:24;8.40;;;3.23;;
2756;SDS011;1386;50.862;6.494;2022-11-20T21:04:52;7.90;;;3.70;;
2756;SDS011;1386;50.862;6.494;2022-11-20T21:07:20;14.43;;;4.10;;
2756;SDS011;1386;50.862;6.494;2022-11-20T21:09:47;18.33;;;3.97;;
2756;SDS011;1386;50.862;6.494;2022-11-20T21:12:14;7.50;;;3.33;;
2756;SDS011;1386;50.862;6.494;2022-11-20T21:14:41;12.40;;;4.27;;
2756;SDS011;1386;50.862;6.494;2022-11-20T21:17:08;9.63;;;3.80;;
2756;SDS011;1386;50.862;6.494;2022-11-20T21:19:36;19.33;;;4.37;;
2756;SDS011;1386;50.862;6.494;2022-11-20T21:22:03;7.67;;;3.03;;
2756;SDS011;1386;50.862;6.494;2022-11-20T21:24:30;11.50;;;3.67;;
2756;SDS011;1386;50.862;6.494;2022-11-20T21:26:59;10.90;;;4.00;;
2756;SDS011;1386;50.862;6.494;2022-11-20T21:29:27;15.00;;;5.07;;
2756;SDS011;1386;50.862;6.494;2022-11-20T21:31:55;8.80;;;3.47;;
2756;SDS011;1386;50.862;6.494;2022-11-20T21:34:23;13.77;;;4.10;;
2756;SDS011;1386;50.862;6.494;2022-11-20T21:36:50;12.20;;;4.07;;
2756;SDS011;1386;50.862;6.494;2022-11-20T21:39:17;11.63;;;4.40;;
2756;SDS011;1386;50.862;6.494;2022-11-20T21:41:47;12.40;;;3.93;;
2756;SDS011;1386;50.862;6.494;2022-11-20T21:44:14;16.10;;;4.90;;
2756;SDS011;1386;50.862;6.494;2022-11-20T21:46:42;8.27;;;3.73;;
2756;SDS011;1386;50.862;6.494;2022-11-20T21:49:10;21.03;;;4.40;;
2756;SDS011;1386;50.862;6.494;2022-11-20T21:51:38;15.47;;;4.20;;
2756;SDS011;1386;50.862;6.494;2022-11-20T21:54:05;10.53;;;4.27;;
2756;SDS011;1386;50.862;6.494;2022-11-20T21:56:32;16.47;;;4.57;;
2756;SDS011;1386;50.862;6.494;2022-11-20T21:59:00;18.37;;;4.90;;
2756;SDS011;1386;50.862;6.494;2022-11-20T22:01:28;15.20;;;4.30;;
2756;SDS011;1386;50.862;6.494;2022-11-20T22:03:55;11.27;;;3.93;;
2756;SDS011;1386;50.862;6.494;2022-11-20T22:06:23;12.57;;;4.00;;
2756;SDS011;1386;50.862;6.494;2022-11-20T22:08:52;13.17;;;5.23;;
2756;SDS011;1386;50.862;6.494;2022-11-20T22:11:19;15.33;;;4.23;;
2756;SDS011;1386;50.862;6.494;2022-11-20T22:13:47;11.03;;;3.97;;
2756;SDS011;1386;50.862;6.494;2022-11-20T22:16:33;16.90;;;4.30;;
2756;SDS011;1386;50.862;6.494;2022-11-20T22:19:00;13.97;;;4.00;;
2756;SDS011;1386;50.862;6.494;2022-11-20T22:21:28;13.93;;;5.00;;
2756;SDS011;1386;50.862;6.494;2022-11-20T22:23:56;12.70;;;4.53;;
2756;SDS011;1386;50.862;6.494;2022-11-20T22:26:24;18.00;;;5.23;;
2756;SDS011;1386;50.862;6.494;2022-11-20T22:28:52;10.47;;;5.23;;
2756;SDS011;1386;50.862;6.494;2022-11-20T22:31:22;14.23;;;5.23;;
2756;SDS011;1386;50.862;6.494;2022-11-20T22:33:52;9.60;;;4.50;;
2756;SDS011;1386;50.862;6.494;2022-11-20T22:36:19;18.03;;;6.60;;
2756;SDS011;1386;50.862;6.494;2022-11-20T22:38:47;15.00;;;6.17;;
2756;SDS011;1386;50.862;6.494;2022-11-20T22:41:15;13.40;;;5.80;;
2756;SDS011;1386;50.862;6.494;2022-11-20T22:43:43;12.00;;;5.50;;
2756;SDS011;1386;50.862;6.494;2022-11-20T22:46:11;18.33;;;4.83;;
2756;SDS011;1386;50.862;6.494;2022-11-20T22:48:39;16.13;;;4.37;;
2756;SDS011;1386;50.862;6.494;2022-11-20T22:51:12;11.37;;;4.47;;
2756;SDS011;1386;50.862;6.494;2022-11-20T22:53:40;10.50;;;4.77;;
2756;SDS011;1386;50.862;6.494;2022-11-20T22:56:08;15.33;;;4.60;;
2756;SDS011;1386;50.862;6.494;2022-11-20T22:58:37;10.83;;;4.90;;
2756;SDS011;1386;50.862;6.494;2022-11-20T23:01:06;9.83;;;4.70;;
2756;SDS011;1386;50.862;6.494;2022-11-20T23:03:34;14.93;;;4.50;;
2756;SDS011;1386;50.862;6.494;2022-11-20T23:06:01;18.67;;;4.60;;
2756;SDS011;1386;50.862;6.494;2022-11-20T23:08:29;15.20;;;5.50;;
2756;SDS011;1386;50.862;6.494;2022-11-20T23:10:59;10.90;;;4.07;;
2756;SDS011;1386;50.862;6.494;2022-11-20T23:13:26;17.30;;;4.30;;
2756;SDS011;1386;50.862;6.494;2022-11-20T23:15:53;13.73;;;3.80;;
2756;SDS011;1386;50.862;6.494;2022-11-20T23:18:25;11.90;;;4.60;;
2756;SDS011;1386;50.862;6.494;2022-11-20T23:20:52;9.77;;;4.50;;
2756;SDS011;1386;50.862;6.494;2022-11-20T23:23:18;10.07;;;4.50;;
2756;SDS011;1386;50.862;6.494;2022-11-20T23:25:47;15.90;;;4.60;;
2756;SDS011;1386;50.862;6.494;2022-11-20T23:28:14;11.40;;;4.00;;
2756;SDS011;1386;50.862;6.494;2022-11-20T23:30:40;16.30;;;4.30;;
2756;SDS011;1386;50.862;6.494;2022-11-20T23:33:07;9.30;;;4.50;;
2756;SDS011;1386;50.862;6.494;2022-11-20T23:35:36;14.20;;;4.63;;
2756;SDS011;1386;50.862;6.494;2022-11-20T23:38:04;13.87;;;4.27;;
2756;SDS011;1386;50.862;6.494;2022-11-20T23:40:30;10.53;;;4.00;;
2756;SDS011;1386;50.862;6.494;2022-11-20T23:42:59;15.53;;;4.53;;
2756;SDS011;1386;50.862;6.494;2022-11-20T23:45:41;14.70;;;3.80;;
2756;SDS011;1386;50.862;6.494;2022-11-20T23:48:08;12.83;;;4.27;;
2756;SDS011;1386;50.862;6.494;2022-11-20T23:50:35;10.57;;;4.13;;
2756;SDS011;1386;50.862;6.494;2022-11-20T23:53:02;13.00;;;4.43;;
2756;SDS011;1386;50.862;6.494;2022-11-20T23:55:29;9.23;;;5.43;;
2756;SDS011;1386;50.862;6.494;2022-11-20T23:57:56;12.03;;;5.83;;
